HTDO

Dodoma Airport

Dodoma, Tanzania
METAR HTDO 181600Z 09009KT 9999 FEW031 FEW033CB 28/13 Q1013 NOSG
Observed Flight Rules
Oct-18 @ 16:00 UTC (55 minutes ago) Visual Flight Rules
Wind Visibility Clouds
90° at 9 knots 10,000+ meters
  • Few at 3,100' AGL
  • Few at 3,300' AGL
Temperatures Readings
Current 28°C / 82°F
Dewpoint 13°C / 55°F
Humidity 40%
Altimeter 29.91" Hg
Pressure 1013 hPa
Elevation 1120
METAR HTDO 181600Z 09009KT 9999 FEW031 FEW033CB 28/13 Q1013 NOSG
Observed Flight Rules
Oct-18 @ 16:00 UTC
(55 minutes ago)
VFR
Wind Visibility
90° at 9 knots 10,000+ meters
Clouds
  • Few at 3,100' AGL
  • Few at 3,300' AGL
Temperature Dewpoint
28°C / 82°F 13°C / 55°F
Humidity Altimeter Pressure
40% 29.91" Hg 1013 hPa